sensor_id;sensor_type;location;lat;lon;timestamp;pressure;altitude;pressure_sealevel;temperature;humidity
43814;BME280;29669;55.706;37.656;2023-05-16T00:02:24;100571.94;;;12.83;45.74
43814;BME280;29669;55.706;37.656;2023-05-16T00:04:52;100567.38;;;12.77;45.88
43814;BME280;29669;55.706;37.656;2023-05-16T00:07:21;100559.19;;;12.72;46.11
43814;BME280;29669;55.706;37.656;2023-05-16T00:09:48;100562.13;;;12.69;46.12
43814;BME280;29669;55.706;37.656;2023-05-16T00:12:16;100566.69;;;12.67;46.28
43814;BME280;29669;55.706;37.656;2023-05-16T00:14:44;100566.47;;;12.61;46.45
43814;BME280;29669;55.706;37.656;2023-05-16T00:17:12;100567.47;;;12.60;46.32
43814;BME280;29669;55.706;37.656;2023-05-16T00:19:39;100569.06;;;12.53;46.84
43814;BME280;29669;55.706;37.656;2023-05-16T00:22:08;100565.94;;;12.49;47.00
43814;BME280;29669;55.706;37.656;2023-05-16T00:24:37;100564.16;;;12.50;47.16
43814;BME280;29669;55.706;37.656;2023-05-16T00:27:06;100561.16;;;12.70;47.12
43814;BME280;29669;55.706;37.656;2023-05-16T00:29:34;100557.31;;;12.90;46.63
43814;BME280;29669;55.706;37.656;2023-05-16T00:32:02;100553.94;;;12.98;46.55
43814;BME280;29669;55.706;37.656;2023-05-16T00:34:31;100562.94;;;13.03;47.13
43814;BME280;29669;55.706;37.656;2023-05-16T00:36:58;100562.25;;;13.01;47.16
43814;BME280;29669;55.706;37.656;2023-05-16T00:39:26;100565.53;;;13.03;47.33
43814;BME280;29669;55.706;37.656;2023-05-16T00:41:55;100557.31;;;12.98;47.37
43814;BME280;29669;55.706;37.656;2023-05-16T00:44:24;100559.28;;;12.96;47.33
43814;BME280;29669;55.706;37.656;2023-05-16T00:46:53;100561.25;;;12.94;47.67
43814;BME280;29669;55.706;37.656;2023-05-16T00:49:20;100548.84;;;12.88;47.54
43814;BME280;29669;55.706;37.656;2023-05-16T00:51:48;100551.09;;;12.83;47.74
43814;BME280;29669;55.706;37.656;2023-05-16T00:54:17;100546.69;;;12.76;47.77
43814;BME280;29669;55.706;37.656;2023-05-16T00:56:49;100551.06;;;12.67;47.88
43814;BME280;29669;55.706;37.656;2023-05-16T00:59:18;100555.28;;;12.60;47.94
43814;BME280;29669;55.706;37.656;2023-05-16T01:01:47;100560.09;;;12.55;48.14
43814;BME280;29669;55.706;37.656;2023-05-16T01:04:16;100553.75;;;12.50;48.26
43814;BME280;29669;55.706;37.656;2023-05-16T01:06:44;100569.88;;;12.53;48.33
43814;BME280;29669;55.706;37.656;2023-05-16T01:09:13;100572.19;;;12.56;48.62
43814;BME280;29669;55.706;37.656;2023-05-16T01:28:03;100572.75;;;12.42;49.29
43814;BME280;29669;55.706;37.656;2023-05-16T01:30:35;100576.94;;;12.35;49.20
43814;BME280;29669;55.706;37.656;2023-05-16T01:33:03;100572.34;;;12.29;49.24
43814;BME280;29669;55.706;37.656;2023-05-16T01:35:31;100582.56;;;12.22;49.17
43814;BME280;29669;55.706;37.656;2023-05-16T01:43:36;100577.16;;;12.16;49.00
43814;BME280;29669;55.706;37.656;2023-05-16T01:46:11;100576.66;;;12.12;49.03
43814;BME280;29669;55.706;37.656;2023-05-16T01:48:51;100578.41;;;12.12;49.04
43814;BME280;29669;55.706;37.656;2023-05-16T01:51:26;100574.19;;;12.11;48.84
43814;BME280;29669;55.706;37.656;2023-05-16T01:54:01;100579.09;;;12.14;48.96
43814;BME280;29669;55.706;37.656;2023-05-16T01:56:32;100582.34;;;12.16;48.84
43814;BME280;29669;55.706;37.656;2023-05-16T01:59:01;100580.41;;;12.18;48.84
43814;BME280;29669;55.706;37.656;2023-05-16T02:01:31;100576.16;;;12.17;48.67
43814;BME280;29669;55.706;37.656;2023-05-16T02:03:59;100580.88;;;12.13;48.65
43814;BME280;29669;55.706;37.656;2023-05-16T02:06:27;100583.97;;;12.17;48.98
43814;BME280;29669;55.706;37.656;2023-05-16T02:08:56;100582.03;;;12.19;49.03
43814;BME280;29669;55.706;37.656;2023-05-16T02:11:23;100582.03;;;12.19;48.90
43814;BME280;29669;55.706;37.656;2023-05-16T02:13:51;100585.69;;;12.26;48.94
43814;BME280;29669;55.706;37.656;2023-05-16T02:16:19;100588.78;;;12.29;48.91
43814;BME280;29669;55.706;37.656;2023-05-16T02:18:47;100584.41;;;12.30;48.89
43814;BME280;29669;55.706;37.656;2023-05-16T02:21:34;100577.22;;;12.32;48.71
43814;BME280;29669;55.706;37.656;2023-05-16T02:24:02;100588.69;;;12.39;48.93
43814;BME280;29669;55.706;37.656;2023-05-16T02:26:31;100578.56;;;12.36;48.88
43814;BME280;29669;55.706;37.656;2023-05-16T02:28:59;100590.16;;;12.42;48.79
43814;BME280;29669;55.706;37.656;2023-05-16T02:31:31;100594.91;;;12.46;48.84
43814;BME280;29669;55.706;37.656;2023-05-16T02:34:00;100593.13;;;12.47;48.76
43814;BME280;29669;55.706;37.656;2023-05-16T02:36:28;100588.56;;;12.49;48.90
43814;BME280;29669;55.706;37.656;2023-05-16T02:38:56;100592.63;;;12.51;48.84
43814;BME280;29669;55.706;37.656;2023-05-16T02:41:23;100594.78;;;12.56;48.83
43814;BME280;29669;55.706;37.656;2023-05-16T02:43:51;100602.66;;;12.64;48.91
43814;BME280;29669;55.706;37.656;2023-05-16T02:48:56;100588.69;;;12.73;48.69
43814;BME280;29669;55.706;37.656;2023-05-16T02:51:25;100591.47;;;12.79;48.77
43814;BME280;29669;55.706;37.656;2023-05-16T02:53:54;100598.81;;;12.84;48.56
43814;BME280;29669;55.706;37.656;2023-05-16T02:56:23;100592.16;;;12.89;48.63
43814;BME280;29669;55.706;37.656;2023-05-16T02:58:53;100595.75;;;12.96;48.51
43814;BME280;29669;55.706;37.656;2023-05-16T03:01:21;100590.25;;;12.99;48.49
43814;BME280;29669;55.706;37.656;2023-05-16T03:03:49;100593.88;;;13.06;48.89
43814;BME280;29669;55.706;37.656;2023-05-16T03:06:17;100590.47;;;13.14;48.31
43814;BME280;29669;55.706;37.656;2023-05-16T03:08:45;100585.63;;;13.19;48.29
43814;BME280;29669;55.706;37.656;2023-05-16T03:11:17;100584.81;;;13.27;48.25
43814;BME280;29669;55.706;37.656;2023-05-16T03:13:49;100590.19;;;13.33;48.16
43814;BME280;29669;55.706;37.656;2023-05-16T03:16:17;100579.94;;;13.40;48.25
43814;BME280;29669;55.706;37.656;2023-05-16T03:18:45;100580.75;;;13.48;48.04
43814;BME280;29669;55.706;37.656;2023-05-16T03:21:13;100587.13;;;13.54;47.96
43814;BME280;29669;55.706;37.656;2023-05-16T03:23:44;100588.75;;;13.63;47.84
43814;BME280;29669;55.706;37.656;2023-05-16T03:26:11;100583.88;;;13.68;47.71
43814;BME280;29669;55.706;37.656;2023-05-16T03:28:39;100591.38;;;13.79;47.71
43814;BME280;29669;55.706;37.656;2023-05-16T03:31:07;100598.41;;;13.86;47.56
43814;BME280;29669;55.706;37.656;2023-05-16T03:33:35;100594.97;;;13.94;47.59
43814;BME280;29669;55.706;37.656;2023-05-16T03:36:03;100600.19;;;14.02;47.38
43814;BME280;29669;55.706;37.656;2023-05-16T03:38:31;100595.94;;;14.09;47.19
43814;BME280;29669;55.706;37.656;2023-05-16T03:40:59;100600.16;;;14.18;47.23
43814;BME280;29669;55.706;37.656;2023-05-16T03:43:27;100599.66;;;14.23;47.34
43814;BME280;29669;55.706;37.656;2023-05-16T03:45:55;100593.47;;;14.32;47.33
43814;BME280;29669;55.706;37.656;2023-05-16T03:48:23;100591.16;;;14.37;47.11
43814;BME280;29669;55.706;37.656;2023-05-16T03:50:51;100593.94;;;14.43;47.08
43814;BME280;29669;55.706;37.656;2023-05-16T03:53:19;100598.16;;;14.52;46.92
43814;BME280;29669;55.706;37.656;2023-05-16T03:55:47;100598.13;;;14.60;46.97
43814;BME280;29669;55.706;37.656;2023-05-16T03:58:15;100598.59;;;14.64;46.97
43814;BME280;29669;55.706;37.656;2023-05-16T04:00:43;100616.53;;;14.75;46.83
43814;BME280;29669;55.706;37.656;2023-05-16T04:03:12;100614.25;;;14.80;46.69
43814;BME280;29669;55.706;37.656;2023-05-16T04:05:40;100616.00;;;14.87;46.67
43814;BME280;29669;55.706;37.656;2023-05-16T04:08:07;100613.69;;;14.92;46.48
43814;BME280;29669;55.706;37.656;2023-05-16T04:10:35;100611.38;;;14.97;46.35
43814;BME280;29669;55.706;37.656;2023-05-16T04:13:03;100609.88;;;15.03;46.40
43814;BME280;29669;55.706;37.656;2023-05-16T04:15:30;100614.31;;;15.02;46.16
43814;BME280;29669;55.706;37.656;2023-05-16T04:17:58;100614.59;;;15.07;46.13
43814;BME280;29669;55.706;37.656;2023-05-16T04:20:26;100615.53;;;15.15;45.94
43814;BME280;29669;55.706;37.656;2023-05-16T04:22:54;100618.47;;;15.20;45.94
43814;BME280;29669;55.706;37.656;2023-05-16T04:25:22;100619.59;;;15.25;45.81
43814;BME280;29669;55.706;37.656;2023-05-16T04:27:50;100618.06;;;15.31;45.75
43814;BME280;29669;55.706;37.656;2023-05-16T04:30:17;100619.97;;;15.37;45.73
43814;BME280;29669;55.706;37.656;2023-05-16T04:32:45;100632.25;;;15.44;45.41
43814;BME280;29669;55.706;37.656;2023-05-16T04:35:13;100627.50;;;15.48;45.17
43814;BME280;29669;55.706;37.656;2023-05-16T04:37:41;100631.03;;;15.55;44.99
43814;BME280;29669;55.706;37.656;2023-05-16T04:40:10;100629.53;;;15.60;44.71
43814;BME280;29669;55.706;37.656;2023-05-16T04:42:39;100629.00;;;15.65;44.38
43814;BME280;29669;55.706;37.656;2023-05-16T04:45:07;100631.25;;;15.68;44.29
43814;BME280;29669;55.706;37.656;2023-05-16T04:47:37;100629.09;;;15.71;44.33
43814;BME280;29669;55.706;37.656;2023-05-16T04:50:06;100633.66;;;15.77;44.14
43814;BME280;29669;55.706;37.656;2023-05-16T04:52:35;100633.47;;;15.79;43.95
43814;BME280;29669;55.706;37.656;2023-05-16T04:55:04;100635.56;;;15.83;43.64
43814;BME280;29669;55.706;37.656;2023-05-16T04:57:33;100638.47;;;15.88;43.57
43814;BME280;29669;55.706;37.656;2023-05-16T05:00:01;100646.16;;;15.90;43.33
43814;BME280;29669;55.706;37.656;2023-05-16T05:02:30;100638.94;;;15.92;43.34
43814;BME280;29669;55.706;37.656;2023-05-16T05:04:58;100648.44;;;15.93;43.00
43814;BME280;29669;55.706;37.656;2023-05-16T05:07:25;100643.47;;;15.98;43.08
43814;BME280;29669;55.706;37.656;2023-05-16T05:09:55;100653.25;;;16.04;42.85
43814;BME280;29669;55.706;37.656;2023-05-16T05:12:23;100650.56;;;16.12;42.81
43814;BME280;29669;55.706;37.656;2023-05-16T05:14:51;100637.75;;;16.17;42.64
43814;BME280;29669;55.706;37.656;2023-05-16T05:17:20;100647.50;;;16.23;42.65
43814;BME280;29669;55.706;37.656;2023-05-16T05:19:48;100653.47;;;16.32;42.55
43814;BME280;29669;55.706;37.656;2023-05-16T05:22:16;100654.56;;;16.37;42.42
43814;BME280;29669;55.706;37.656;2023-05-16T05:24:44;100647.97;;;16.41;42.26
43814;BME280;29669;55.706;37.656;2023-05-16T05:27:12;100653.38;;;16.48;42.21
43814;BME280;29669;55.706;37.656;2023-05-16T05:29:40;100656.88;;;16.55;42.05
43814;BME280;29669;55.706;37.656;2023-05-16T05:32:07;100664.22;;;16.59;41.96
43814;BME280;29669;55.706;37.656;2023-05-16T05:34:36;100650.56;;;16.64;41.95
43814;BME280;29669;55.706;37.656;2023-05-16T05:37:04;100646.59;;;16.68;41.76
43814;BME280;29669;55.706;37.656;2023-05-16T05:39:31;100660.44;;;16.76;41.61
43814;BME280;29669;55.706;37.656;2023-05-16T05:42:00;100653.22;;;16.78;41.71
43814;BME280;29669;55.706;37.656;2023-05-16T05:44:29;100659.16;;;16.87;41.59
43814;BME280;29669;55.706;37.656;2023-05-16T05:46:57;100667.28;;;16.92;41.48
43814;BME280;29669;55.706;37.656;2023-05-16T05:49:25;100667.38;;;16.99;41.33
43814;BME280;29669;55.706;37.656;2023-05-16T05:51:54;100657.97;;;17.04;41.05
43814;BME280;29669;55.706;37.656;2023-05-16T05:54:22;100661.13;;;17.14;40.87
43814;BME280;29669;55.706;37.656;2023-05-16T05:56:50;100659.78;;;17.18;40.56
43814;BME280;29669;55.706;37.656;2023-05-16T05:59:17;100665.91;;;17.25;40.30
43814;BME280;29669;55.706;37.656;2023-05-16T06:01:45;100668.25;;;17.35;40.22
43814;BME280;29669;55.706;37.656;2023-05-16T06:04:13;100667.50;;;17.41;40.14
43814;BME280;29669;55.706;37.656;2023-05-16T06:06:41;100666.94;;;17.45;39.85
43814;BME280;29669;55.706;37.656;2023-05-16T06:09:08;100670.31;;;17.54;39.21
43814;BME280;29669;55.706;37.656;2023-05-16T06:11:37;100672.19;;;17.60;38.88
43814;BME280;29669;55.706;37.656;2023-05-16T06:14:05;100677.31;;;17.68;38.66
43814;BME280;29669;55.706;37.656;2023-05-16T06:16:33;100673.31;;;17.72;38.55
43814;BME280;29669;55.706;37.656;2023-05-16T06:19:01;100674.56;;;17.76;38.64
43814;BME280;29669;55.706;37.656;2023-05-16T06:21:29;100677.91;;;17.84;38.78
43814;BME280;29669;55.706;37.656;2023-05-16T06:23:57;100681.38;;;17.92;38.42
43814;BME280;29669;55.706;37.656;2023-05-16T06:26:25;100671.94;;;17.97;38.05
43814;BME280;29669;55.706;37.656;2023-05-16T06:28:53;100665.44;;;17.93;37.40
43814;BME280;29669;55.706;37.656;2023-05-16T06:31:23;100682.81;;;17.94;37.03
43814;BME280;29669;55.706;37.656;2023-05-16T06:33:51;100673.13;;;17.95;36.95
43814;BME280;29669;55.706;37.656;2023-05-16T06:36:19;100678.25;;;18.03;36.61
43814;BME280;29669;55.706;37.656;2023-05-16T06:38:47;100674.44;;;18.05;36.53
43814;BME280;29669;55.706;37.656;2023-05-16T06:41:14;100672.44;;;18.07;36.26
43814;BME280;29669;55.706;37.656;2023-05-16T06:43:42;100674.28;;;18.13;36.15
43814;BME280;29669;55.706;37.656;2023-05-16T06:46:10;100666.47;;;18.20;35.93
43814;BME280;29669;55.706;37.656;2023-05-16T06:48:38;100662.47;;;18.24;35.77
43814;BME280;29669;55.706;37.656;2023-05-16T06:51:09;100669.00;;;18.34;35.63
43814;BME280;29669;55.706;37.656;2023-05-16T06:53:37;100664.63;;;18.41;35.68
43814;BME280;29669;55.706;37.656;2023-05-16T06:56:05;100668.34;;;18.47;35.91
43814;BME280;29669;55.706;37.656;2023-05-16T06:58:33;100659.25;;;18.49;35.60
43814;BME280;29669;55.706;37.656;2023-05-16T07:01:01;100661.09;;;18.55;35.68
43814;BME280;29669;55.706;37.656;2023-05-16T07:03:32;100659.09;;;18.57;35.55
43814;BME280;29669;55.706;37.656;2023-05-16T07:06:00;100657.50;;;18.63;35.43
43814;BME280;29669;55.706;37.656;2023-05-16T07:08:28;100668.88;;;18.70;35.46
43814;BME280;29669;55.706;37.656;2023-05-16T07:10:56;100671.56;;;18.76;35.35
43814;BME280;29669;55.706;37.656;2023-05-16T07:13:24;100662.28;;;18.81;35.22
43814;BME280;29669;55.706;37.656;2023-05-16T07:15:52;100670.38;;;18.86;34.89
43814;BME280;29669;55.706;37.656;2023-05-16T07:18:20;100659.25;;;18.84;34.69
43814;BME280;29669;55.706;37.656;2023-05-16T07:20:48;100663.13;;;18.88;34.53
43814;BME280;29669;55.706;37.656;2023-05-16T07:23:52;100657.84;;;18.88;34.34
43814;BME280;29669;55.706;37.656;2023-05-16T07:26:20;100657.69;;;18.96;34.23
43814;BME280;29669;55.706;37.656;2023-05-16T07:28:49;100658.69;;;18.95;33.80
43814;BME280;29669;55.706;37.656;2023-05-16T07:31:17;100647.75;;;18.91;33.60
43814;BME280;29669;55.706;37.656;2023-05-16T07:33:45;100653.41;;;18.88;33.37
43814;BME280;29669;55.706;37.656;2023-05-16T07:36:13;100648.78;;;18.90;33.24
43814;BME280;29669;55.706;37.656;2023-05-16T07:38:44;100651.03;;;19.00;33.08
43814;BME280;29669;55.706;37.656;2023-05-16T07:41:11;100654.50;;;19.07;32.90
43814;BME280;29669;55.706;37.656;2023-05-16T07:43:39;100653.72;;;19.13;32.87
43814;BME280;29669;55.706;37.656;2023-05-16T07:46:07;100648.25;;;19.14;32.80
43814;BME280;29669;55.706;37.656;2023-05-16T07:48:35;100651.06;;;19.06;32.56
43814;BME280;29669;55.706;37.656;2023-05-16T07:51:03;100647.19;;;19.02;32.70
43814;BME280;29669;55.706;37.656;2023-05-16T07:53:31;100641.94;;;19.02;32.64
43814;BME280;29669;55.706;37.656;2023-05-16T07:55:59;100649.25;;;19.07;32.32
43814;BME280;29669;55.706;37.656;2023-05-16T07:58:26;100645.44;;;19.16;32.30
43814;BME280;29669;55.706;37.656;2023-05-16T08:00:55;100647.69;;;19.19;32.22
43814;BME280;29669;55.706;37.656;2023-05-16T08:03:22;100647.47;;;19.27;32.07
43814;BME280;29669;55.706;37.656;2023-05-16T08:05:50;100641.59;;;19.25;31.79
43814;BME280;29669;55.706;37.656;2023-05-16T08:08:19;100637.16;;;19.19;31.80
43814;BME280;29669;55.706;37.656;2023-05-16T08:10:47;100647.47;;;19.27;31.76
43814;BME280;29669;55.706;37.656;2023-05-16T08:13:15;100645.75;;;19.34;31.50
43814;BME280;29669;55.706;37.656;2023-05-16T08:15:43;100644.91;;;19.40;31.26
43814;BME280;29669;55.706;37.656;2023-05-16T08:18:13;100635.63;;;19.44;31.31
43814;BME280;29669;55.706;37.656;2023-05-16T08:20:41;100637.47;;;19.50;31.27
43814;BME280;29669;55.706;37.656;2023-05-16T08:23:09;100642.94;;;19.55;31.18
43814;BME280;29669;55.706;37.656;2023-05-16T08:25:37;100647.00;;;19.51;31.22
43814;BME280;29669;55.706;37.656;2023-05-16T08:28:05;100639.28;;;19.49;30.97
43814;BME280;29669;55.706;37.656;2023-05-16T08:30:33;100633.84;;;19.51;30.99
43814;BME280;29669;55.706;37.656;2023-05-16T08:33:01;100631.41;;;19.56;30.67
43814;BME280;29669;55.706;37.656;2023-05-16T08:35:32;100638.28;;;19.57;31.24
43814;BME280;29669;55.706;37.656;2023-05-16T08:38:02;100635.47;;;19.65;31.20
43814;BME280;29669;55.706;37.656;2023-05-16T08:40:30;100627.16;;;19.75;31.15
43814;BME280;29669;55.706;37.656;2023-05-16T08:42:57;100633.69;;;19.85;30.84
43814;BME280;29669;55.706;37.656;2023-05-16T08:45:25;100630.81;;;19.80;30.77
43814;BME280;29669;55.706;37.656;2023-05-16T08:47:54;100625.75;;;19.79;30.65
43814;BME280;29669;55.706;37.656;2023-05-16T08:50:23;100623.53;;;19.76;30.51
43814;BME280;29669;55.706;37.656;2023-05-16T08:52:52;100619.47;;;19.73;30.15
43814;BME280;29669;55.706;37.656;2023-05-16T08:55:21;100622.09;;;19.73;30.33
43814;BME280;29669;55.706;37.656;2023-05-16T08:57:50;100625.16;;;19.83;30.13
43814;BME280;29669;55.706;37.656;2023-05-16T09:00:20;100631.25;;;19.90;30.00
43814;BME280;29669;55.706;37.656;2023-05-16T09:02:49;100615.41;;;19.97;29.80
43814;BME280;29669;55.706;37.656;2023-05-16T09:05:17;100618.88;;;20.04;29.66
43814;BME280;29669;55.706;37.656;2023-05-16T09:07:45;100617.06;;;19.98;29.71
43814;BME280;29669;55.706;37.656;2023-05-16T09:10:13;100614.63;;;19.96;29.64
43814;BME280;29669;55.706;37.656;2023-05-16T09:12:41;100615.00;;;20.06;29.38
43814;BME280;29669;55.706;37.656;2023-05-16T09:15:10;100622.34;;;20.17;29.37
43814;BME280;29669;55.706;37.656;2023-05-16T09:17:41;100614.63;;;20.22;29.23
43814;BME280;29669;55.706;37.656;2023-05-16T09:20:15;100624.38;;;20.28;29.09
43814;BME280;29669;55.706;37.656;2023-05-16T09:22:54;100613.00;;;20.28;28.99
43814;BME280;29669;55.706;37.656;2023-05-16T09:25:27;100625.97;;;20.29;29.07
43814;BME280;29669;55.706;37.656;2023-05-16T09:27:59;100614.63;;;20.35;29.27
43814;BME280;29669;55.706;37.656;2023-05-16T09:30:33;100614.00;;;20.40;29.18
43814;BME280;29669;55.706;37.656;2023-05-16T09:33:01;100622.94;;;20.45;28.89
43814;BME280;29669;55.706;37.656;2023-05-16T09:35:30;100604.66;;;20.44;28.72
43814;BME280;29669;55.706;37.656;2023-05-16T09:38:15;100610.34;;;20.47;28.66
43814;BME280;29669;55.706;37.656;2023-05-16T09:40:46;100602.63;;;20.52;28.75
43814;BME280;29669;55.706;37.656;2023-05-16T09:43:15;100602.41;;;20.60;28.40
43814;BME280;29669;55.706;37.656;2023-05-16T09:45:46;100608.47;;;20.68;28.32
43814;BME280;29669;55.706;37.656;2023-05-16T09:48:15;100604.38;;;20.72;28.25
43814;BME280;29669;55.706;37.656;2023-05-16T09:50:51;100600.31;;;20.76;27.99
43814;BME280;29669;55.706;37.656;2023-05-16T09:53:26;100589.75;;;20.76;27.82
43814;BME280;29669;55.706;37.656;2023-05-16T09:56:10;100591.38;;;20.83;27.88
43814;BME280;29669;55.706;37.656;2023-05-16T09:58:43;100583.44;;;20.83;27.97
43814;BME280;29669;55.706;37.656;2023-05-16T10:01:11;100595.22;;;20.87;27.79
43814;BME280;29669;55.706;37.656;2023-05-16T10:03:41;100587.69;;;20.91;27.63
43814;BME280;29669;55.706;37.656;2023-05-16T10:06:11;100580.75;;;20.90;27.65
43814;BME280;29669;55.706;37.656;2023-05-16T10:08:46;100582.81;;;20.88;27.78
43814;BME280;29669;55.706;37.656;2023-05-16T10:11:18;100577.13;;;20.91;27.84
43814;BME280;29669;55.706;37.656;2023-05-16T10:13:50;100570.59;;;20.93;27.83
43814;BME280;29669;55.706;37.656;2023-05-16T10:16:22;100560.84;;;20.94;27.70
43814;BME280;29669;55.706;37.656;2023-05-16T10:18:51;100572.63;;;20.98;27.57
43814;BME280;29669;55.706;37.656;2023-05-16T10:21:21;100561.22;;;20.97;27.60
43814;BME280;29669;55.706;37.656;2023-05-16T10:23:53;100561.44;;;20.96;27.69
43814;BME280;29669;55.706;37.656;2023-05-16T10:26:24;100564.91;;;20.96;27.82
43814;BME280;29669;55.706;37.656;2023-05-16T10:28:54;100557.38;;;21.00;27.74
43814;BME280;29669;55.706;37.656;2023-05-16T10:31:22;100548.66;;;21.06;27.59
43814;BME280;29669;55.706;37.656;2023-05-16T10:33:52;100543.53;;;21.11;27.85
43814;BME280;29669;55.706;37.656;2023-05-16T10:36:19;100545.75;;;21.14;27.72
43814;BME280;29669;55.706;37.656;2023-05-16T10:38:49;100549.78;;;21.16;27.79
43814;BME280;29669;55.706;37.656;2023-05-16T10:41:18;100557.50;;;21.18;27.76
43814;BME280;29669;55.706;37.656;2023-05-16T10:43:56;100544.09;;;21.19;27.54
43814;BME280;29669;55.706;37.656;2023-05-16T10:46:26;100551.38;;;21.24;27.66
43814;BME280;29669;55.706;37.656;2023-05-16T10:48:56;100545.69;;;21.27;27.79
43814;BME280;29669;55.706;37.656;2023-05-16T10:54:05;100542.34;;;21.38;27.75
43814;BME280;29669;55.706;37.656;2023-05-16T10:56:35;100533.97;;;21.41;27.73
43814;BME280;29669;55.706;37.656;2023-05-16T10:59:03;100527.63;;;21.48;27.80
43814;BME280;29669;55.706;37.656;2023-05-16T11:01:39;100534.94;;;21.53;27.91
43814;BME280;29669;55.706;37.656;2023-05-16T11:04:09;100520.25;;;21.57;27.46
43814;BME280;29669;55.706;37.656;2023-05-16T11:06:58;100522.72;;;21.52;27.33
43814;BME280;29669;55.706;37.656;2023-05-16T11:09:26;100530.47;;;21.53;27.39
43814;BME280;29669;55.706;37.656;2023-05-16T11:12:02;100514.97;;;21.57;27.54
43814;BME280;29669;55.706;37.656;2023-05-16T11:17:06;100516.44;;;21.78;27.63
43814;BME280;29669;55.706;37.656;2023-05-16T11:19:51;100520.78;;;21.90;27.48
43814;BME280;29669;55.706;37.656;2023-05-16T11:29:53;100517.16;;;21.91;27.14
43814;BME280;29669;55.706;37.656;2023-05-16T11:32:22;100512.66;;;21.92;27.34
43814;BME280;29669;55.706;37.656;2023-05-16T11:34:51;100511.41;;;21.94;27.25
43814;BME280;29669;55.706;37.656;2023-05-16T11:37:19;100506.25;;;21.99;27.40
43814;BME280;29669;55.706;37.656;2023-05-16T11:39:47;100510.09;;;22.03;27.33
43814;BME280;29669;55.706;37.656;2023-05-16T11:42:15;100507.16;;;22.11;27.33
43814;BME280;29669;55.706;37.656;2023-05-16T11:44:44;100505.47;;;22.17;27.19
43814;BME280;29669;55.706;37.656;2023-05-16T11:47:12;100504.38;;;22.24;27.30
43814;BME280;29669;55.706;37.656;2023-05-16T11:49:40;100497.63;;;22.28;27.35
43814;BME280;29669;55.706;37.656;2023-05-16T11:52:08;100497.63;;;22.28;27.40
43814;BME280;29669;55.706;37.656;2023-05-16T11:54:36;100502.91;;;22.28;27.12
43814;BME280;29669;55.706;37.656;2023-05-16T11:57:05;100504.09;;;22.32;27.28
43814;BME280;29669;55.706;37.656;2023-05-16T11:59:32;100505.28;;;22.36;27.37
43814;BME280;29669;55.706;37.656;2023-05-16T12:02:02;100507.03;;;22.42;27.14
43814;BME280;29669;55.706;37.656;2023-05-16T12:04:31;100495.47;;;22.55;27.06
43814;BME280;29669;55.706;37.656;2023-05-16T12:07:00;100506.44;;;22.59;27.09
43814;BME280;29669;55.706;37.656;2023-05-16T12:09:30;100503.34;;;22.62;26.87
43814;BME280;29669;55.706;37.656;2023-05-16T12:12:03;100503.63;;;22.72;26.71
43814;BME280;29669;55.706;37.656;2023-05-16T12:14:32;100498.25;;;22.78;26.64
43814;BME280;29669;55.706;37.656;2023-05-16T12:17:00;100495.38;;;22.80;26.86
43814;BME280;29669;55.706;37.656;2023-05-16T12:19:27;100496.91;;;22.87;26.81
43814;BME280;29669;55.706;37.656;2023-05-16T12:21:55;100503.38;;;22.91;26.57
43814;BME280;29669;55.706;37.656;2023-05-16T12:24:31;100491.50;;;22.94;26.48
43814;BME280;29669;55.706;37.656;2023-05-16T12:26:59;100500.50;;;22.93;26.53
43814;BME280;29669;55.706;37.656;2023-05-16T12:29:26;100495.81;;;23.06;26.17
43814;BME280;29669;55.706;37.656;2023-05-16T12:31:54;100487.00;;;23.24;26.34
43814;BME280;29669;55.706;37.656;2023-05-16T12:34:22;100487.53;;;23.67;25.78
43814;BME280;29669;55.706;37.656;2023-05-16T12:36:53;100477.44;;;24.95;24.70
43814;BME280;29669;55.706;37.656;2023-05-16T12:39:21;100478.28;;;27.13;22.37
43814;BME280;29669;55.706;37.656;2023-05-16T12:56:49;100471.19;;;33.10;nan
43814;BME280;29669;55.706;37.656;2023-05-16T12:59:17;100474.22;;;33.54;nan
43814;BME280;29669;55.706;37.656;2023-05-16T13:01:46;100466.19;;;34.08;nan
43814;BME280;29669;55.706;37.656;2023-05-16T13:06:48;100460.28;;;33.79;nan
43814;BME280;29669;55.706;37.656;2023-05-16T13:09:25;100457.09;;;34.04;nan
43814;BME280;29669;55.706;37.656;2023-05-16T13:11:57;100459.91;;;34.84;nan
43814;BME280;29669;55.706;37.656;2023-05-16T13:14:25;100459.34;;;35.40;nan
43814;BME280;29669;55.706;37.656;2023-05-16T13:16:56;100455.03;;;35.61;nan
43814;BME280;29669;55.706;37.656;2023-05-16T13:19:26;100454.09;;;35.35;nan
43814;BME280;29669;55.706;37.656;2023-05-16T13:21:54;100452.16;;;35.58;nan
43814;BME280;29669;55.706;37.656;2023-05-16T13:24:22;100451.56;;;35.69;nan
43814;BME280;29669;55.706;37.656;2023-05-16T13:29:17;100454.50;;;35.90;nan
43814;BME280;29669;55.706;37.656;2023-05-16T13:39:20;100446.78;;;37.71;nan
43814;BME280;29669;55.706;37.656;2023-05-16T13:51:41;100438.56;;;38.38;nan
43814;BME280;29669;55.706;37.656;2023-05-16T14:11:32;100423.38;;;38.67;nan
43814;BME280;29669;55.706;37.656;2023-05-16T14:14:00;100404.81;;;38.07;nan
43814;BME280;29669;55.706;37.656;2023-05-16T14:23:54;100424.56;;;38.90;nan
43814;BME280;29669;55.706;37.656;2023-05-16T14:31:19;100411.66;;;38.33;nan
43814;BME280;29669;55.706;37.656;2023-05-16T14:46:05;100422.84;;;39.18;nan
43814;BME280;29669;55.706;37.656;2023-05-16T15:18:13;100413.41;;;38.50;nan